sensor_id;sensor_type;location;lat;lon;timestamp;temperature;humidity
11762;DHT22;5938;47.098;15.474;2024-01-25T00:03:54;9.90;85.70
11762;DHT22;5938;47.098;15.474;2024-01-25T00:07:58;9.70;84.40
11762;DHT22;5938;47.098;15.474;2024-01-25T00:12:01;9.90;84.10
11762;DHT22;5938;47.098;15.474;2024-01-25T00:16:05;9.80;83.30
11762;DHT22;5938;47.098;15.474;2024-01-25T00:20:11;9.80;83.30
11762;DHT22;5938;47.098;15.474;2024-01-25T00:24:14;10.00;82.40
11762;DHT22;5938;47.098;15.474;2024-01-25T00:28:18;10.00;81.40
11762;DHT22;5938;47.098;15.474;2024-01-25T00:32:21;10.00;81.60
11762;DHT22;5938;47.098;15.474;2024-01-25T00:36:26;9.80;82.90
11762;DHT22;5938;47.098;15.474;2024-01-25T00:40:32;9.70;83.20
11762;DHT22;5938;47.098;15.474;2024-01-25T00:44:36;9.40;83.00
11762;DHT22;5938;47.098;15.474;2024-01-25T00:48:40;9.30;82.80
11762;DHT22;5938;47.098;15.474;2024-01-25T00:52:47;9.40;83.00
11762;DHT22;5938;47.098;15.474;2024-01-25T00:56:51;9.10;83.40
11762;DHT22;5938;47.098;15.474;2024-01-25T01:00:55;9.10;84.40
11762;DHT22;5938;47.098;15.474;2024-01-25T01:04:59;9.30;82.80
11762;DHT22;5938;47.098;15.474;2024-01-25T01:09:05;9.50;83.00
11762;DHT22;5938;47.098;15.474;2024-01-25T01:13:09;9.50;83.00
11762;DHT22;5938;47.098;15.474;2024-01-25T01:17:13;9.10;84.50
11762;DHT22;5938;47.098;15.474;2024-01-25T01:21:17;9.00;83.60
11762;DHT22;5938;47.098;15.474;2024-01-25T01:25:22;9.10;83.50
11762;DHT22;5938;47.098;15.474;2024-01-25T01:29:26;9.10;83.40
11762;DHT22;5938;47.098;15.474;2024-01-25T01:33:30;9.40;83.00
11762;DHT22;5938;47.098;15.474;2024-01-25T01:37:34;9.50;83.00
11762;DHT22;5938;47.098;15.474;2024-01-25T01:41:41;9.40;83.00
11762;DHT22;5938;47.098;15.474;2024-01-25T01:45:50;9.30;82.80
11762;DHT22;5938;47.098;15.474;2024-01-25T01:49:58;9.00;83.60
11762;DHT22;5938;47.098;15.474;2024-01-25T01:54:03;8.80;84.40
11762;DHT22;5938;47.098;15.474;2024-01-25T01:58:09;9.10;82.70
11762;DHT22;5938;47.098;15.474;2024-01-25T02:02:14;9.10;84.20
11762;DHT22;5938;47.098;15.474;2024-01-25T02:06:19;8.90;83.90
11762;DHT22;5938;47.098;15.474;2024-01-25T02:10:23;8.80;83.40
11762;DHT22;5938;47.098;15.474;2024-01-25T02:14:30;9.00;82.60
11762;DHT22;5938;47.098;15.474;2024-01-25T02:18:35;9.10;82.70
11762;DHT22;5938;47.098;15.474;2024-01-25T02:44:32;8.70;85.10
11762;DHT22;5938;47.098;15.474;2024-01-25T02:49:09;8.50;84.00
11762;DHT22;5938;47.098;15.474;2024-01-25T02:53:23;8.90;82.50
11762;DHT22;5938;47.098;15.474;2024-01-25T02:58:33;9.20;82.80
11762;DHT22;5938;47.098;15.474;2024-01-25T03:03:07;9.40;83.00
11762;DHT22;5938;47.098;15.474;2024-01-25T03:12:26;9.60;81.40
11762;DHT22;5938;47.098;15.474;2024-01-25T03:16:48;9.20;82.80
11762;DHT22;5938;47.098;15.474;2024-01-25T03:33:23;8.70;82.40
11762;DHT22;5938;47.098;15.474;2024-01-25T03:37:38;8.30;82.10
11762;DHT22;5938;47.098;15.474;2024-01-25T03:41:55;8.70;81.70
11762;DHT22;5938;47.098;15.474;2024-01-25T03:46:18;8.60;82.20
11762;DHT22;5938;47.098;15.474;2024-01-25T03:50:43;8.10;82.30
11762;DHT22;5938;47.098;15.474;2024-01-25T03:54:47;7.80;84.70
11762;DHT22;5938;47.098;15.474;2024-01-25T03:58:51;7.40;84.60
11762;DHT22;5938;47.098;15.474;2024-01-25T04:02:54;7.40;84.60
11762;DHT22;5938;47.098;15.474;2024-01-25T04:06:59;7.40;84.60
11762;DHT22;5938;47.098;15.474;2024-01-25T04:11:02;7.60;84.40
11762;DHT22;5938;47.098;15.474;2024-01-25T04:15:06;7.40;85.00
11762;DHT22;5938;47.098;15.474;2024-01-25T04:19:10;7.30;86.10
11762;DHT22;5938;47.098;15.474;2024-01-25T04:23:16;7.50;85.70
11762;DHT22;5938;47.098;15.474;2024-01-25T04:27:19;7.50;85.20
11762;DHT22;5938;47.098;15.474;2024-01-25T04:31:23;8.00;85.30
11762;DHT22;5938;47.098;15.474;2024-01-25T04:35:26;7.90;84.80
11762;DHT22;5938;47.098;15.474;2024-01-25T04:39:31;8.10;84.90
11762;DHT22;5938;47.098;15.474;2024-01-25T04:43:35;7.70;85.60
11762;DHT22;5938;47.098;15.474;2024-01-25T04:47:39;7.20;87.60
11762;DHT22;5938;47.098;15.474;2024-01-25T04:51:42;6.80;88.60
11762;DHT22;5938;47.098;15.474;2024-01-25T04:55:47;6.80;89.40
11762;DHT22;5938;47.098;15.474;2024-01-25T04:59:50;7.30;88.30
11762;DHT22;5938;47.098;15.474;2024-01-25T05:03:53;7.20;88.70
11762;DHT22;5938;47.098;15.474;2024-01-25T05:07:58;7.10;88.90
11762;DHT22;5938;47.098;15.474;2024-01-25T05:12:03;6.90;90.30
11762;DHT22;5938;47.098;15.474;2024-01-25T05:16:06;6.70;90.20
11762;DHT22;5938;47.098;15.474;2024-01-25T05:20:10;6.50;90.10
11762;DHT22;5938;47.098;15.474;2024-01-25T05:24:15;6.30;90.60
11762;DHT22;5938;47.098;15.474;2024-01-25T05:28:20;6.20;90.90
11762;DHT22;5938;47.098;15.474;2024-01-25T05:32:23;6.00;91.40
11762;DHT22;5938;47.098;15.474;2024-01-25T05:36:27;5.90;91.80
11762;DHT22;5938;47.098;15.474;2024-01-25T05:40:30;5.90;91.80
11762;DHT22;5938;47.098;15.474;2024-01-25T05:44:35;6.10;91.80
11762;DHT22;5938;47.098;15.474;2024-01-25T05:48:38;5.80;92.40
11762;DHT22;5938;47.098;15.474;2024-01-25T05:52:42;5.80;92.30
11762;DHT22;5938;47.098;15.474;2024-01-25T05:56:45;5.90;92.80
11762;DHT22;5938;47.098;15.474;2024-01-25T06:00:50;5.90;93.00
11762;DHT22;5938;47.098;15.474;2024-01-25T06:04:54;5.90;93.10
11762;DHT22;5938;47.098;15.474;2024-01-25T06:09:00;5.60;94.10
11762;DHT22;5938;47.098;15.474;2024-01-25T06:13:14;5.90;93.80
11762;DHT22;5938;47.098;15.474;2024-01-25T06:17:19;6.00;93.70
11762;DHT22;5938;47.098;15.474;2024-01-25T06:21:22;5.50;94.10
11762;DHT22;5938;47.098;15.474;2024-01-25T06:25:25;5.30;94.70
11762;DHT22;5938;47.098;15.474;2024-01-25T06:29:33;5.30;95.00
11762;DHT22;5938;47.098;15.474;2024-01-25T06:33:37;5.00;95.40
11762;DHT22;5938;47.098;15.474;2024-01-25T06:37:41;4.60;96.50
11762;DHT22;5938;47.098;15.474;2024-01-25T06:41:44;4.60;97.20
11762;DHT22;5938;47.098;15.474;2024-01-25T06:45:47;4.40;97.80
11762;DHT22;5938;47.098;15.474;2024-01-25T06:49:52;4.30;97.80
11762;DHT22;5938;47.098;15.474;2024-01-25T06:53:56;4.10;98.40
11762;DHT22;5938;47.098;15.474;2024-01-25T06:57:59;4.00;98.80
11762;DHT22;5938;47.098;15.474;2024-01-25T07:02:03;4.00;99.50
11762;DHT22;5938;47.098;15.474;2024-01-25T07:06:08;4.00;99.60
11762;DHT22;5938;47.098;15.474;2024-01-25T07:10:11;3.90;99.90
11762;DHT22;5938;47.098;15.474;2024-01-25T07:14:15;4.20;99.90
11762;DHT22;5938;47.098;15.474;2024-01-25T07:18:18;4.60;99.80
11762;DHT22;5938;47.098;15.474;2024-01-25T07:22:23;5.40;98.80
11762;DHT22;5938;47.098;15.474;2024-01-25T07:26:27;6.00;98.50
11762;DHT22;5938;47.098;15.474;2024-01-25T07:30:30;6.40;97.30
11762;DHT22;5938;47.098;15.474;2024-01-25T07:34:33;6.70;96.60
11762;DHT22;5938;47.098;15.474;2024-01-25T07:38:38;6.70;96.60
11762;DHT22;5938;47.098;15.474;2024-01-25T07:42:41;6.90;96.50
11762;DHT22;5938;47.098;15.474;2024-01-25T07:46:45;7.00;96.40
11762;DHT22;5938;47.098;15.474;2024-01-25T07:50:50;7.00;96.40
11762;DHT22;5938;47.098;15.474;2024-01-25T07:54:55;7.00;96.50
11762;DHT22;5938;47.098;15.474;2024-01-25T07:58:58;7.10;96.30
11762;DHT22;5938;47.098;15.474;2024-01-25T08:03:02;7.10;96.40
11762;DHT22;5938;47.098;15.474;2024-01-25T08:07:05;6.90;96.70
11762;DHT22;5938;47.098;15.474;2024-01-25T08:11:10;6.90;96.50
11762;DHT22;5938;47.098;15.474;2024-01-25T08:15:14;7.10;96.20
11762;DHT22;5938;47.098;15.474;2024-01-25T08:19:17;7.20;95.90
11762;DHT22;5938;47.098;15.474;2024-01-25T08:23:21;7.40;95.50
11762;DHT22;5938;47.098;15.474;2024-01-25T08:27:26;7.50;95.10
11762;DHT22;5938;47.098;15.474;2024-01-25T08:31:29;7.50;95.00
11762;DHT22;5938;47.098;15.474;2024-01-25T08:35:32;7.50;94.90
11762;DHT22;5938;47.098;15.474;2024-01-25T08:39:36;7.60;94.90
11762;DHT22;5938;47.098;15.474;2024-01-25T08:43:41;8.00;94.20
11762;DHT22;5938;47.098;15.474;2024-01-25T08:47:45;8.10;94.10
11762;DHT22;5938;47.098;15.474;2024-01-25T08:51:48;8.20;93.40
11762;DHT22;5938;47.098;15.474;2024-01-25T08:55:52;8.30;93.10
11762;DHT22;5938;47.098;15.474;2024-01-25T08:59:57;8.40;92.70
11762;DHT22;5938;47.098;15.474;2024-01-25T09:04:00;8.50;92.30
11762;DHT22;5938;47.098;15.474;2024-01-25T09:08:06;8.50;92.20
11762;DHT22;5938;47.098;15.474;2024-01-25T09:12:09;8.90;91.40
11762;DHT22;5938;47.098;15.474;2024-01-25T09:16:16;9.20;91.20
11762;DHT22;5938;47.098;15.474;2024-01-25T09:20:19;9.20;90.70
11762;DHT22;5938;47.098;15.474;2024-01-25T09:24:23;9.20;90.00
11762;DHT22;5938;47.098;15.474;2024-01-25T09:28:26;9.20;88.70
11762;DHT22;5938;47.098;15.474;2024-01-25T09:32:33;9.20;88.60
11762;DHT22;5938;47.098;15.474;2024-01-25T09:36:36;9.00;90.40
11762;DHT22;5938;47.098;15.474;2024-01-25T09:40:40;9.00;87.90
11762;DHT22;5938;47.098;15.474;2024-01-25T09:44:44;9.30;87.80
11762;DHT22;5938;47.098;15.474;2024-01-25T09:48:49;9.50;85.00
11762;DHT22;5938;47.098;15.474;2024-01-25T09:52:54;9.80;85.40
11762;DHT22;5938;47.098;15.474;2024-01-25T09:56:59;9.80;83.60
11762;DHT22;5938;47.098;15.474;2024-01-25T10:01:03;9.80;84.10
11762;DHT22;5938;47.098;15.474;2024-01-25T10:05:08;10.10;80.90
11762;DHT22;5938;47.098;15.474;2024-01-25T10:09:12;11.30;77.30
11762;DHT22;5938;47.098;15.474;2024-01-25T10:13:16;12.20;74.20
11762;DHT22;5938;47.098;15.474;2024-01-25T10:17:19;12.60;74.60
11762;DHT22;5938;47.098;15.474;2024-01-25T10:21:24;12.90;72.40
11762;DHT22;5938;47.098;15.474;2024-01-25T10:25:29;12.20;73.10
11762;DHT22;5938;47.098;15.474;2024-01-25T10:29:34;11.70;73.10
11762;DHT22;5938;47.098;15.474;2024-01-25T10:33:38;11.50;72.90
11762;DHT22;5938;47.098;15.474;2024-01-25T10:37:44;12.90;69.60
11762;DHT22;5938;47.098;15.474;2024-01-25T10:41:49;12.80;70.30
11762;DHT22;5938;47.098;15.474;2024-01-25T10:45:55;12.30;69.80
11762;DHT22;5938;47.098;15.474;2024-01-25T10:50:04;12.10;70.50
11762;DHT22;5938;47.098;15.474;2024-01-25T10:54:12;13.10;69.20
11762;DHT22;5938;47.098;15.474;2024-01-25T10:58:17;14.80;66.10
11762;DHT22;5938;47.098;15.474;2024-01-25T11:02:20;14.60;64.20
11762;DHT22;5938;47.098;15.474;2024-01-25T11:06:24;13.70;65.00
11762;DHT22;5938;47.098;15.474;2024-01-25T11:10:36;14.30;65.60
11762;DHT22;5938;47.098;15.474;2024-01-25T11:14:40;14.60;64.20
11762;DHT22;5938;47.098;15.474;2024-01-25T11:18:50;14.30;63.70
11762;DHT22;5938;47.098;15.474;2024-01-25T11:22:58;16.10;60.40
11762;DHT22;5938;47.098;15.474;2024-01-25T11:27:04;16.50;58.60
11762;DHT22;5938;47.098;15.474;2024-01-25T11:31:08;18.10;55.90
11762;DHT22;5938;47.098;15.474;2024-01-25T11:35:11;17.50;56.10
11762;DHT22;5938;47.098;15.474;2024-01-25T11:39:18;15.10;57.90
11762;DHT22;5938;47.098;15.474;2024-01-25T11:43:23;15.90;56.90
11762;DHT22;5938;47.098;15.474;2024-01-25T11:47:27;16.30;56.70
11762;DHT22;5938;47.098;15.474;2024-01-25T11:51:31;16.80;57.10
11762;DHT22;5938;47.098;15.474;2024-01-25T11:55:34;18.80;53.50
11762;DHT22;5938;47.098;15.474;2024-01-25T11:59:39;20.20;51.10
11762;DHT22;5938;47.098;15.474;2024-01-25T12:03:43;18.50;51.70
11762;DHT22;5938;47.098;15.474;2024-01-25T12:07:47;16.70;55.20
11762;DHT22;5938;47.098;15.474;2024-01-25T12:11:51;14.60;59.30
11762;DHT22;5938;47.098;15.474;2024-01-25T12:15:55;14.20;59.30
11762;DHT22;5938;47.098;15.474;2024-01-25T12:19:59;12.90;64.30
11762;DHT22;5938;47.098;15.474;2024-01-25T12:24:04;12.10;65.00
11762;DHT22;5938;47.098;15.474;2024-01-25T12:28:11;11.80;66.40
11762;DHT22;5938;47.098;15.474;2024-01-25T12:32:21;11.60;68.40
11762;DHT22;5938;47.098;15.474;2024-01-25T12:36:24;12.60;64.70
11762;DHT22;5938;47.098;15.474;2024-01-25T12:40:28;15.20;62.00
11762;DHT22;5938;47.098;15.474;2024-01-25T12:44:31;16.50;56.80
11762;DHT22;5938;47.098;15.474;2024-01-25T12:48:39;17.40;57.60
11762;DHT22;5938;47.098;15.474;2024-01-25T12:52:43;16.90;57.20
11762;DHT22;5938;47.098;15.474;2024-01-25T12:56:47;19.30;53.90
11762;DHT22;5938;47.098;15.474;2024-01-25T13:00:51;17.10;54.70
11762;DHT22;5938;47.098;15.474;2024-01-25T13:04:57;18.00;54.00
11762;DHT22;5938;47.098;15.474;2024-01-25T13:09:00;17.80;54.10
11762;DHT22;5938;47.098;15.474;2024-01-25T13:13:05;19.80;51.10
11762;DHT22;5938;47.098;15.474;2024-01-25T13:17:08;17.30;52.10
11762;DHT22;5938;47.098;15.474;2024-01-25T13:21:13;18.70;51.90
11762;DHT22;5938;47.098;15.474;2024-01-25T13:25:17;18.40;53.00
11762;DHT22;5938;47.098;15.474;2024-01-25T13:29:20;16.60;53.20
11762;DHT22;5938;47.098;15.474;2024-01-25T13:33:23;17.40;54.00
11762;DHT22;5938;47.098;15.474;2024-01-25T13:37:28;17.70;52.50
11762;DHT22;5938;47.098;15.474;2024-01-25T13:41:32;15.10;55.50
11762;DHT22;5938;47.098;15.474;2024-01-25T13:45:38;13.10;61.50
11762;DHT22;5938;47.098;15.474;2024-01-25T13:49:42;11.90;63.80
11762;DHT22;5938;47.098;15.474;2024-01-25T13:53:47;11.30;65.30
11762;DHT22;5938;47.098;15.474;2024-01-25T13:57:52;11.20;65.30
11762;DHT22;5938;47.098;15.474;2024-01-25T14:01:56;10.90;66.00
11762;DHT22;5938;47.098;15.474;2024-01-25T14:06:00;10.70;67.50
11762;DHT22;5938;47.098;15.474;2024-01-25T14:10:09;10.50;67.80
11762;DHT22;5938;47.098;15.474;2024-01-25T14:14:13;10.40;67.20
11762;DHT22;5938;47.098;15.474;2024-01-25T14:18:17;10.20;68.90
11762;DHT22;5938;47.098;15.474;2024-01-25T14:22:20;10.10;68.50
11762;DHT22;5938;47.098;15.474;2024-01-25T14:26:34;10.20;68.80
11762;DHT22;5938;47.098;15.474;2024-01-25T14:30:40;9.90;70.10
11762;DHT22;5938;47.098;15.474;2024-01-25T14:34:45;9.80;70.90
11762;DHT22;5938;47.098;15.474;2024-01-25T14:38:48;9.50;72.00
11762;DHT22;5938;47.098;15.474;2024-01-25T14:42:54;9.50;70.40
11762;DHT22;5938;47.098;15.474;2024-01-25T14:47:00;9.80;68.40
11762;DHT22;5938;47.098;15.474;2024-01-25T14:51:08;9.90;68.50
11762;DHT22;5938;47.098;15.474;2024-01-25T14:55:12;9.50;70.40
11762;DHT22;5938;47.098;15.474;2024-01-25T14:59:17;9.30;70.50
11762;DHT22;5938;47.098;15.474;2024-01-25T15:03:20;9.30;70.20
11762;DHT22;5938;47.098;15.474;2024-01-25T15:07:25;9.40;69.20
11762;DHT22;5938;47.098;15.474;2024-01-25T15:11:29;9.30;69.40
11762;DHT22;5938;47.098;15.474;2024-01-25T15:15:34;9.30;71.90
11762;DHT22;5938;47.098;15.474;2024-01-25T15:19:38;8.90;72.20
11762;DHT22;5938;47.098;15.474;2024-01-25T15:23:41;8.60;71.90
11762;DHT22;5938;47.098;15.474;2024-01-25T15:27:45;8.20;74.50
11762;DHT22;5938;47.098;15.474;2024-01-25T15:31:50;7.70;76.00
11762;DHT22;5938;47.098;15.474;2024-01-25T15:35:53;7.20;78.90
11762;DHT22;5938;47.098;15.474;2024-01-25T15:39:57;6.90;80.70
11762;DHT22;5938;47.098;15.474;2024-01-25T15:44:00;6.30;81.20
11762;DHT22;5938;47.098;15.474;2024-01-25T15:48:06;5.90;82.70
11762;DHT22;5938;47.098;15.474;2024-01-25T15:52:09;5.50;84.50
11762;DHT22;5938;47.098;15.474;2024-01-25T15:56:13;5.20;85.40
11762;DHT22;5938;47.098;15.474;2024-01-25T16:00:17;5.00;86.10
11762;DHT22;5938;47.098;15.474;2024-01-25T16:04:22;4.60;88.50
11762;DHT22;5938;47.098;15.474;2024-01-25T16:08:26;4.60;88.60
11762;DHT22;5938;47.098;15.474;2024-01-25T16:12:30;4.20;88.30
11762;DHT22;5938;47.098;15.474;2024-01-25T16:16:33;4.10;89.40
11762;DHT22;5938;47.098;15.474;2024-01-25T16:20:37;4.00;90.00
11762;DHT22;5938;47.098;15.474;2024-01-25T16:24:41;4.00;90.60
11762;DHT22;5938;47.098;15.474;2024-01-25T16:28:44;3.80;90.70
11762;DHT22;5938;47.098;15.474;2024-01-25T16:32:47;3.90;90.40
11762;DHT22;5938;47.098;15.474;2024-01-25T16:36:52;3.90;90.50
11762;DHT22;5938;47.098;15.474;2024-01-25T16:40:56;4.30;90.10
11762;DHT22;5938;47.098;15.474;2024-01-25T16:44:59;4.20;90.20
11762;DHT22;5938;47.098;15.474;2024-01-25T16:49:02;4.10;90.60
11762;DHT22;5938;47.098;15.474;2024-01-25T16:53:07;3.80;90.90
11762;DHT22;5938;47.098;15.474;2024-01-25T16:57:10;3.50;91.40
11762;DHT22;5938;47.098;15.474;2024-01-25T17:01:15;3.40;91.70
11762;DHT22;5938;47.098;15.474;2024-01-25T17:05:19;3.20;92.00
11762;DHT22;5938;47.098;15.474;2024-01-25T17:09:24;3.00;92.30
11762;DHT22;5938;47.098;15.474;2024-01-25T17:13:29;2.70;93.00
11762;DHT22;5938;47.098;15.474;2024-01-25T17:17:33;2.50;92.90
11762;DHT22;5938;47.098;15.474;2024-01-25T17:21:36;2.50;93.10
11762;DHT22;5938;47.098;15.474;2024-01-25T17:25:41;2.50;93.30
11762;DHT22;5938;47.098;15.474;2024-01-25T17:29:45;2.60;93.40
11762;DHT22;5938;47.098;15.474;2024-01-25T17:33:48;3.30;92.30
11762;DHT22;5938;47.098;15.474;2024-01-25T17:37:52;3.20;92.50
11762;DHT22;5938;47.098;15.474;2024-01-25T17:41:57;2.80;93.00
11762;DHT22;5938;47.098;15.474;2024-01-25T17:46:00;2.60;93.20
11762;DHT22;5938;47.098;15.474;2024-01-25T17:50:04;2.40;93.60
11762;DHT22;5938;47.098;15.474;2024-01-25T17:54:08;2.20;93.90
11762;DHT22;5938;47.098;15.474;2024-01-25T17:58:14;2.10;94.20
11762;DHT22;5938;47.098;15.474;2024-01-25T18:02:17;2.10;94.10
11762;DHT22;5938;47.098;15.474;2024-01-25T18:06:21;2.20;93.80
11762;DHT22;5938;47.098;15.474;2024-01-25T18:10:26;2.40;93.40
11762;DHT22;5938;47.098;15.474;2024-01-25T18:14:31;3.00;92.40
11762;DHT22;5938;47.098;15.474;2024-01-25T18:18:35;2.90;93.00
11762;DHT22;5938;47.098;15.474;2024-01-25T18:22:39;2.70;92.90
11762;DHT22;5938;47.098;15.474;2024-01-25T18:26:43;2.40;92.90
11762;DHT22;5938;47.098;15.474;2024-01-25T18:30:50;2.10;93.40
11762;DHT22;5938;47.098;15.474;2024-01-25T18:34:56;2.00;94.00
11762;DHT22;5938;47.098;15.474;2024-01-25T18:39:01;2.00;94.20
11762;DHT22;5938;47.098;15.474;2024-01-25T18:43:06;1.80;94.30
11762;DHT22;5938;47.098;15.474;2024-01-25T18:47:14;1.70;94.70
11762;DHT22;5938;47.098;15.474;2024-01-25T18:51:20;1.50;94.80
11762;DHT22;5938;47.098;15.474;2024-01-25T18:55:27;1.40;95.30
11762;DHT22;5938;47.098;15.474;2024-01-25T18:59:33;1.20;95.50
11762;DHT22;5938;47.098;15.474;2024-01-25T19:03:41;1.30;96.10
11762;DHT22;5938;47.098;15.474;2024-01-25T19:07:49;1.00;96.20
11762;DHT22;5938;47.098;15.474;2024-01-25T19:11:56;1.00;96.50
11762;DHT22;5938;47.098;15.474;2024-01-25T19:16:03;1.00;96.20
11762;DHT22;5938;47.098;15.474;2024-01-25T19:20:12;0.70;96.40
11762;DHT22;5938;47.098;15.474;2024-01-25T19:24:18;0.60;96.60
11762;DHT22;5938;47.098;15.474;2024-01-25T19:28:26;0.70;97.00
11762;DHT22;5938;47.098;15.474;2024-01-25T19:32:33;0.30;96.60
11762;DHT22;5938;47.098;15.474;2024-01-25T19:36:42;0.40;97.10
11762;DHT22;5938;47.098;15.474;2024-01-25T19:40:49;0.40;97.50
11762;DHT22;5938;47.098;15.474;2024-01-25T19:44:54;0.60;97.70
11762;DHT22;5938;47.098;15.474;2024-01-25T19:49:00;0.30;98.00
11762;DHT22;5938;47.098;15.474;2024-01-25T19:53:09;0.50;98.30
11762;DHT22;5938;47.098;15.474;2024-01-25T19:57:16;0.10;98.70
11762;DHT22;5938;47.098;15.474;2024-01-25T20:01:24;0.10;99.10
11762;DHT22;5938;47.098;15.474;2024-01-25T20:05:31;0.10;99.00
11762;DHT22;5938;47.098;15.474;2024-01-25T20:09:39;-0.10;99.20
11762;DHT22;5938;47.098;15.474;2024-01-25T20:13:46;-0.20;99.80
11762;DHT22;5938;47.098;15.474;2024-01-25T20:17:54;-0.20;99.60
11762;DHT22;5938;47.098;15.474;2024-01-25T20:22:00;-0.20;99.90
11762;DHT22;5938;47.098;15.474;2024-01-25T20:26:09;-0.30;99.90
11762;DHT22;5938;47.098;15.474;2024-01-25T20:30:17;-0.20;99.90
11762;DHT22;5938;47.098;15.474;2024-01-25T20:34:23;-0.10;99.90
11762;DHT22;5938;47.098;15.474;2024-01-25T20:38:30;-0.10;99.90
11762;DHT22;5938;47.098;15.474;2024-01-25T20:42:39;0.00;99.80
11762;DHT22;5938;47.098;15.474;2024-01-25T20:46:45;-0.10;99.90
11762;DHT22;5938;47.098;15.474;2024-01-25T20:50:59;0.00;99.90
11762;DHT22;5938;47.098;15.474;2024-01-25T20:55:04;0.00;99.90
11762;DHT22;5938;47.098;15.474;2024-01-25T20:59:11;0.10;99.90
11762;DHT22;5938;47.098;15.474;2024-01-25T21:03:14;-0.10;99.90
11762;DHT22;5938;47.098;15.474;2024-01-25T21:07:18;-0.20;99.90
11762;DHT22;5938;47.098;15.474;2024-01-25T21:11:23;-0.20;99.90
11762;DHT22;5938;47.098;15.474;2024-01-25T21:15:28;-0.20;99.90
11762;DHT22;5938;47.098;15.474;2024-01-25T21:19:32;-0.30;99.90
11762;DHT22;5938;47.098;15.474;2024-01-25T21:23:36;-0.20;99.90
11762;DHT22;5938;47.098;15.474;2024-01-25T21:27:41;-0.20;99.90
11762;DHT22;5938;47.098;15.474;2024-01-25T21:31:47;-0.30;99.90
11762;DHT22;5938;47.098;15.474;2024-01-25T21:35:51;-0.20;99.90
11762;DHT22;5938;47.098;15.474;2024-01-25T21:39:54;0.10;99.90
11762;DHT22;5938;47.098;15.474;2024-01-25T21:43:58;-0.10;99.90
11762;DHT22;5938;47.098;15.474;2024-01-25T21:48:03;-0.20;99.90
11762;DHT22;5938;47.098;15.474;2024-01-25T21:52:11;-0.20;99.90
11762;DHT22;5938;47.098;15.474;2024-01-25T21:56:14;-0.40;99.90
11762;DHT22;5938;47.098;15.474;2024-01-25T22:00:18;-0.50;99.90
11762;DHT22;5938;47.098;15.474;2024-01-25T22:04:24;-0.50;99.90
11762;DHT22;5938;47.098;15.474;2024-01-25T22:08:28;-0.50;99.90
11762;DHT22;5938;47.098;15.474;2024-01-25T22:12:31;-0.60;99.90
11762;DHT22;5938;47.098;15.474;2024-01-25T22:16:34;-0.70;99.90
11762;DHT22;5938;47.098;15.474;2024-01-25T22:20:39;-0.80;99.90
11762;DHT22;5938;47.098;15.474;2024-01-25T22:24:43;-1.00;99.90
11762;DHT22;5938;47.098;15.474;2024-01-25T22:28:46;-0.90;99.90
11762;DHT22;5938;47.098;15.474;2024-01-25T22:32:49;-0.90;99.90
11762;DHT22;5938;47.098;15.474;2024-01-25T22:36:54;-1.00;99.90
11762;DHT22;5938;47.098;15.474;2024-01-25T22:40:58;-1.20;99.90
11762;DHT22;5938;47.098;15.474;2024-01-25T22:45:01;-1.40;99.90
11762;DHT22;5938;47.098;15.474;2024-01-25T22:49:05;-1.30;99.90
11762;DHT22;5938;47.098;15.474;2024-01-25T22:53:10;-1.40;99.90
11762;DHT22;5938;47.098;15.474;2024-01-25T22:57:14;-1.50;99.90
11762;DHT22;5938;47.098;15.474;2024-01-25T23:01:17;-1.30;99.90
11762;DHT22;5938;47.098;15.474;2024-01-25T23:05:21;-1.40;99.90
11762;DHT22;5938;47.098;15.474;2024-01-25T23:09:25;-1.70;99.90
11762;DHT22;5938;47.098;15.474;2024-01-25T23:13:29;-1.60;99.90
11762;DHT22;5938;47.098;15.474;2024-01-25T23:17:33;-1.60;99.90
11762;DHT22;5938;47.098;15.474;2024-01-25T23:21:37;-1.70;99.90
11762;DHT22;5938;47.098;15.474;2024-01-25T23:25:42;-1.60;99.90
11762;DHT22;5938;47.098;15.474;2024-01-25T23:29:48;-1.80;99.90
11762;DHT22;5938;47.098;15.474;2024-01-25T23:33:51;-1.70;99.90
11762;DHT22;5938;47.098;15.474;2024-01-25T23:37:55;-1.90;99.90
11762;DHT22;5938;47.098;15.474;2024-01-25T23:41:59;-1.90;99.90
11762;DHT22;5938;47.098;15.474;2024-01-25T23:46:03;-1.70;99.90
11762;DHT22;5938;47.098;15.474;2024-01-25T23:50:07;-1.80;99.90
11762;DHT22;5938;47.098;15.474;2024-01-25T23:54:11;-1.90;99.90
11762;DHT22;5938;47.098;15.474;2024-01-25T23:58:16;-2.00;99.90
